Time;durP1;ratioP1;P1;durP2;ratioP2;P2;SDS_P1;SDS_P2;PMS_P1;PMS_P2;Temp;Humidity;BMP_temperature;BMP_pressure;BME280_temperature;BME280_humidity;BME280_pressure;Samples;Min_cycle;Max_cycle;Signal;HPM_P1;HPM_P2
2022/08/25 00:00:00;;;;;;;6.63;4.18;;;21.10;92.70;;;;;;4934564;29;20500;-67
2022/08/25 00:02:25;;;;;;;8.10;5.20;;;21.10;92.70;;;;;;4935018;29;20027;-69
2022/08/25 00:04:51;;;;;;;6.60;4.90;;;21.00;92.90;;;;;;4933252;29;20404;-68
2022/08/25 00:07:16;;;;;;;5.53;4.22;;;20.90;92.90;;;;;;4934335;29;20028;-66
2022/08/25 00:09:42;;;;;;;6.40;4.30;;;20.90;93.10;;;;;;4934699;29;20051;-68
2022/08/25 00:12:08;;;;;;;7.18;5.03;;;20.80;93.20;;;;;;4934488;29;20428;-68
2022/08/25 00:14:36;;;;;;;7.82;4.53;;;20.80;93.20;;;;;;4934032;29;20031;-68
2022/08/25 00:17:02;;;;;;;6.88;4.65;;;20.70;93.30;;;;;;4934128;29;20035;-69
2022/08/25 00:19:33;;;;;;;5.82;4.47;;;20.70;93.30;;;;;;4933295;29;20016;-68
2022/08/25 00:21:59;;;;;;;6.28;4.70;;;20.70;93.50;;;;;;4914285;29;20529;-69
2022/08/25 00:24:25;;;;;;;8.20;4.80;;;20.70;93.60;;;;;;4915932;29;20371;-69
2022/08/25 00:26:55;;;;;;;5.80;4.57;;;20.60;93.60;;;;;;4927986;29;20027;-69
2022/08/25 00:29:24;;;;;;;6.50;4.63;;;20.60;93.60;;;;;;4934540;29;20079;-69
2022/08/25 00:31:52;;;;;;;6.15;4.80;;;20.60;93.70;;;;;;4934532;29;20444;-61
2022/08/25 00:34:21;;;;;;;5.55;4.10;;;20.50;93.80;;;;;;4932539;29;20082;-68
2022/08/25 00:36:50;;;;;;;7.13;4.53;;;20.50;93.80;;;;;;4933550;29;20035;-64
2022/08/25 00:39:16;;;;;;;6.72;4.53;;;20.50;93.80;;;;;;4933799;29;20042;-61
2022/08/25 00:41:42;;;;;;;7.80;4.82;;;20.40;93.90;;;;;;4931897;29;20051;-66
2022/08/25 00:44:11;;;;;;;6.57;4.75;;;20.40;94.10;;;;;;4934324;29;20484;-65
2022/08/25 00:46:41;;;;;;;5.65;4.15;;;20.30;94.30;;;;;;4939691;29;20736;-68
2022/08/25 00:49:13;;;;;;;5.28;4.13;;;20.30;94.40;;;;;;4939804;29;20032;-64
2022/08/25 00:51:50;;;;;;;6.20;5.15;;;20.20;94.50;;;;;;4938959;29;20039;-60
2022/08/25 00:54:21;;;;;;;6.35;5.00;;;20.20;94.70;;;;;;4925866;29;20053;-68
2022/08/25 00:56:47;;;;;;;8.18;5.15;;;20.10;94.90;;;;;;4939155;29;20152;-66
2022/08/25 00:59:15;;;;;;;7.28;4.70;;;20.10;95.10;;;;;;4939723;29;20072;-67
2022/08/25 01:01:41;;;;;;;6.65;4.40;;;20.10;95.10;;;;;;4938978;29;20038;-68
2022/08/25 01:04:06;;;;;;;7.00;4.80;;;20.10;95.00;;;;;;4943642;29;20019;-66
2022/08/25 01:06:35;;;;;;;6.82;4.50;;;20.00;95.00;;;;;;4939403;29;20425;-68
2022/08/25 01:09:01;;;;;;;7.35;4.50;;;20.00;95.00;;;;;;4939161;29;20409;-67
2022/08/25 01:11:26;;;;;;;5.50;4.50;;;19.90;94.90;;;;;;4940299;29;20031;-62
2022/08/25 01:13:55;;;;;;;6.63;4.70;;;19.90;95.10;;;;;;4940603;29;20023;-65
2022/08/25 01:16:21;;;;;;;6.00;4.57;;;19.80;95.20;;;;;;4954499;28;20114;-61
2022/08/25 01:18:56;;;;;;;6.78;4.43;;;19.80;95.20;;;;;;4939388;29;20027;-66
2022/08/25 01:21:25;;;;;;;7.20;5.10;;;19.80;95.40;;;;;;4940314;29;20031;-67
2022/08/25 01:23:51;;;;;;;6.00;4.60;;;19.70;95.50;;;;;;4939720;29;20035;-63
2022/08/25 01:26:23;;;;;;;7.90;4.43;;;19.70;95.50;;;;;;4940659;29;20018;-66
2022/08/25 01:31:36;;;;;;;6.30;4.90;;;19.80;95.60;;;;;;4939274;29;20126;-64
2022/08/25 01:34:04;;;;;;;5.75;4.35;;;19.90;95.60;;;;;;4939935;29;20039;-68
2022/08/25 01:36:30;;;;;;;6.18;4.75;;;19.90;95.50;;;;;;4940210;29;20035;-67
2022/08/25 01:38:56;;;;;;;6.97;4.78;;;19.90;95.50;;;;;;4938844;29;20039;-68
2022/08/25 01:41:45;;;;;;;7.70;5.22;;;20.00;95.50;;;;;;4939415;29;20051;-68
2022/08/25 01:44:11;;;;;;;5.70;4.43;;;20.00;95.50;;;;;;4912382;29;20047;-60
2022/08/25 01:46:37;;;;;;;6.65;4.78;;;20.10;95.50;;;;;;4939160;29;20654;-64
2022/08/25 01:49:03;;;;;;;6.95;4.40;;;20.10;95.50;;;;;;4939735;29;20034;-67
2022/08/25 01:51:37;;;;;;;5.60;4.68;;;20.10;95.40;;;;;;4939196;29;20067;-65
2022/08/25 01:54:02;;;;;;;5.97;4.90;;;20.00;95.30;;;;;;4940529;29;20023;-67
2022/08/25 01:56:28;;;;;;;6.25;4.65;;;20.10;95.30;;;;;;4937790;29;20539;-66
2022/08/25 01:58:54;;;;;;;6.80;4.70;;;20.00;95.30;;;;;;4935564;29;20030;-66
2022/08/25 02:01:22;;;;;;;7.15;5.13;;;20.00;95.30;;;;;;4937156;29;20346;-64
2022/08/25 02:03:52;;;;;;;5.35;4.32;;;19.90;95.30;;;;;;4936730;29;20031;-68
2022/08/25 02:06:22;;;;;;;6.28;4.88;;;19.90;95.40;;;;;;4936362;29;20035;-67
2022/08/25 02:08:53;;;;;;;7.53;5.00;;;19.80;95.40;;;;;;4935795;29;20140;-67
2022/08/25 02:11:20;;;;;;;6.57;4.60;;;19.90;95.40;;;;;;4936804;29;20351;-68
2022/08/25 02:13:46;;;;;;;6.00;4.45;;;19.80;95.40;;;;;;4936150;29;20020;-67
2022/08/25 02:16:19;;;;;;;5.65;4.90;;;19.80;95.40;;;;;;4936715;29;20035;-67
2022/08/25 02:18:46;;;;;;;7.47;5.32;;;19.80;95.50;;;;;;4935732;29;20393;-67
2022/08/25 02:21:13;;;;;;;7.95;5.43;;;19.80;95.50;;;;;;4936015;29;20392;-67
2022/08/25 02:23:39;;;;;;;10.20;4.68;;;19.80;95.50;;;;;;4936721;29;20024;-68
2022/08/25 02:26:04;;;;;;;9.65;5.32;;;19.80;95.50;;;;;;4936215;29;20024;-69
2022/08/25 02:28:30;;;;;;;6.57;4.72;;;19.80;95.50;;;;;;4935449;29;20496;-68
2022/08/25 02:30:56;;;;;;;7.38;5.22;;;19.70;95.50;;;;;;4936609;29;20044;-68
2022/08/25 02:33:21;;;;;;;7.63;4.88;;;19.70;95.60;;;;;;4935812;29;20016;-68
2022/08/25 02:35:47;;;;;;;8.00;5.40;;;19.70;95.60;;;;;;4936272;29;20127;-69
2022/08/25 02:38:13;;;;;;;7.32;5.35;;;19.70;95.70;;;;;;4935805;29;20460;-69
2022/08/25 02:40:38;;;;;;;6.80;5.03;;;19.70;95.70;;;;;;4935889;29;20501;-69
2022/08/25 02:43:04;;;;;;;6.38;5.30;;;19.70;95.80;;;;;;4936197;29;20028;-67
2022/08/25 02:45:30;;;;;;;6.60;5.35;;;19.70;95.70;;;;;;4935369;29;20070;-67
2022/08/25 02:47:56;;;;;;;8.07;5.60;;;19.70;95.70;;;;;;4934922;29;20423;-65
2022/08/25 02:50:22;;;;;;;7.28;5.32;;;19.80;95.60;;;;;;4936520;29;20020;-67
2022/08/25 02:52:49;;;;;;;7.57;5.30;;;19.80;95.60;;;;;;4936146;29;20035;-64
2022/08/25 02:55:16;;;;;;;6.72;5.40;;;19.80;95.60;;;;;;4918459;29;20500;-68
2022/08/25 02:57:42;;;;;;;6.97;5.43;;;19.80;95.50;;;;;;4923640;29;20039;-67
2022/08/25 03:00:11;;;;;;;7.20;5.75;;;19.80;95.50;;;;;;4934997;29;20488;-62
2022/08/25 03:02:37;;;;;;;7.22;6.15;;;19.80;95.50;;;;;;4934707;29;20219;-64
2022/08/25 03:05:03;;;;;;;9.25;5.43;;;19.70;95.40;;;;;;4935324;29;20107;-67
2022/08/25 03:07:29;;;;;;;7.85;5.28;;;19.70;95.30;;;;;;4935828;29;20023;-67
2022/08/25 03:09:55;;;;;;;7.22;5.03;;;19.70;95.30;;;;;;4935330;29;20165;-65
2022/08/25 03:12:21;;;;;;;7.05;5.93;;;19.70;95.20;;;;;;4935891;29;20122;-67
2022/08/25 03:14:47;;;;;;;7.57;6.28;;;19.70;95.10;;;;;;4934752;29;20114;-66
2022/08/25 03:17:12;;;;;;;8.48;6.35;;;19.70;94.90;;;;;;4934095;29;20160;-66
2022/08/25 03:19:38;;;;;;;7.63;6.03;;;19.70;94.80;;;;;;4934444;29;20099;-65
2022/08/25 03:22:04;;;;;;;7.50;6.35;;;19.60;94.60;;;;;;4934614;29;20040;-68
2022/08/25 03:24:29;;;;;;;6.30;5.43;;;19.60;94.40;;;;;;4934490;29;20036;-67
2022/08/25 03:26:55;;;;;;;6.97;5.75;;;19.50;94.40;;;;;;4935795;29;20031;-68
2022/08/25 03:29:30;;;;;;;8.27;5.70;;;19.50;94.40;;;;;;4935137;29;20024;-65
2022/08/25 03:31:58;;;;;;;8.15;5.57;;;19.50;94.40;;;;;;4935304;29;20087;-68
2022/08/25 03:34:26;;;;;;;8.10;5.35;;;19.50;94.40;;;;;;4934620;29;20552;-66
2022/08/25 03:36:53;;;;;;;8.63;5.70;;;19.40;94.30;;;;;;4935049;29;20023;-66
2022/08/25 03:39:21;;;;;;;9.25;6.07;;;19.40;94.30;;;;;;4935708;29;20045;-68
2022/08/25 03:41:47;;;;;;;8.40;6.28;;;19.30;94.30;;;;;;4949273;29;20039;-67
2022/08/25 03:44:14;;;;;;;6.93;5.20;;;19.20;94.30;;;;;;4933972;29;20038;-67
2022/08/25 03:46:46;;;;;;;8.98;6.15;;;19.20;94.30;;;;;;4935073;29;20035;-65
2022/08/25 03:49:14;;;;;;;7.70;5.60;;;19.10;94.50;;;;;;4935421;29;20019;-65
2022/08/25 03:51:44;;;;;;;8.30;5.68;;;19.10;94.60;;;;;;4934197;29;20032;-65
2022/08/25 03:54:10;;;;;;;8.57;5.53;;;19.00;94.70;;;;;;4934055;29;20035;-66
2022/08/25 03:56:37;;;;;;;7.13;5.63;;;19.00;94.70;;;;;;4934960;29;20028;-70
2022/08/25 03:59:03;;;;;;;9.48;5.80;;;19.00;94.70;;;;;;4934472;29;20019;-68
2022/08/25 04:01:28;;;;;;;9.15;6.25;;;19.00;94.70;;;;;;4934707;29;20028;-66
2022/08/25 04:03:54;;;;;;;7.63;5.40;;;19.00;94.60;;;;;;4930428;29;20035;-67
2022/08/25 04:06:20;;;;;;;6.93;5.60;;;18.90;94.50;;;;;;4918431;29;20114;-61
2022/08/25 04:08:47;;;;;;;10.95;6.15;;;18.90;94.70;;;;;;4929497;29;20469;-68
2022/08/25 04:11:19;;;;;;;9.18;6.18;;;18.80;94.70;;;;;;4930529;29;20042;-63
2022/08/25 04:13:46;;;;;;;7.38;5.90;;;18.80;94.80;;;;;;4936255;29;20027;-66
2022/08/25 04:16:13;;;;;;;9.52;6.25;;;18.70;94.80;;;;;;4941826;29;20051;-66
2022/08/25 04:18:39;;;;;;;9.15;6.72;;;18.70;94.90;;;;;;4933285;29;20152;-63
2022/08/25 04:21:08;;;;;;;9.20;5.60;;;18.60;94.90;;;;;;4933045;29;20504;-66
2022/08/25 04:23:39;;;;;;;7.90;6.18;;;18.60;94.90;;;;;;4934639;29;20034;-66
2022/08/25 04:26:12;;;;;;;;;;;18.50;95.20;;;;;;4953249;29;20027;-67
2022/08/25 04:28:37;;;;;;;10.27;5.30;;;18.50;95.10;;;;;;4941595;28;20407;-64
2022/08/25 04:31:11;;;;;;;9.02;5.30;;;18.40;95.40;;;;;;4934230;29;20071;-64
2022/08/25 04:33:37;;;;;;;6.20;5.28;;;18.30;95.50;;;;;;4930752;29;20592;-65
2022/08/25 04:36:05;;;;;;;7.20;5.50;;;18.30;95.70;;;;;;4933254;29;20040;-66
2022/08/25 04:38:31;;;;;;;8.02;5.90;;;18.30;95.70;;;;;;4932446;29;20083;-66
2022/08/25 04:40:58;;;;;;;7.63;5.97;;;18.30;95.90;;;;;;4931516;29;20023;-64
2022/08/25 04:43:24;;;;;;;6.22;5.03;;;18.20;95.90;;;;;;4932333;29;20083;-62
2022/08/25 04:45:50;;;;;;;8.27;5.80;;;18.20;95.80;;;;;;4931575;29;20099;-67
2022/08/25 04:48:16;;;;;;;8.02;5.82;;;18.20;95.80;;;;;;4932793;29;20024;-67
2022/08/25 04:50:43;;;;;;;8.70;6.00;;;18.10;95.70;;;;;;4933165;29;20055;-61
2022/08/25 04:53:09;;;;;;;8.98;5.18;;;18.10;95.70;;;;;;4928718;29;20509;-67
2022/08/25 04:55:46;;;;;;;7.25;5.40;;;18.10;95.80;;;;;;4932875;29;20039;-61
2022/08/25 04:58:14;;;;;;;8.25;5.55;;;18.10;95.80;;;;;;4931601;29;20042;-59
2022/08/25 05:00:40;;;;;;;8.02;5.70;;;18.10;95.80;;;;;;4932140;29;20485;-67
2022/08/25 05:03:07;;;;;;;7.55;5.97;;;18.10;95.90;;;;;;4933139;29;20095;-65
2022/08/25 05:05:35;;;;;;;7.75;5.60;;;18.10;95.90;;;;;;4918573;29;20024;-61
2022/08/25 05:08:01;;;;;;;7.05;5.57;;;18.10;95.90;;;;;;4913481;29;20025;-63
2022/08/25 05:10:27;;;;;;;8.40;5.43;;;18.10;96.00;;;;;;4913892;29;20167;-63
2022/08/25 05:12:53;;;;;;;7.70;5.60;;;18.10;96.00;;;;;;4914381;29;20444;-62
2022/08/25 05:18:02;;;;;;;7.53;5.80;;;18.10;95.90;;;;;;4914641;29;20063;-62
2022/08/25 05:20:29;;;;;;;6.53;5.53;;;18.10;95.90;;;;;;4914487;29;20028;-63
2022/08/25 05:22:56;;;;;;;7.47;5.28;;;18.10;96.10;;;;;;4913960;29;20024;-64
2022/08/25 05:25:22;;;;;;;9.70;6.07;;;18.10;95.80;;;;;;4913904;29;20047;-59
2022/08/25 05:27:48;;;;;;;8.23;6.07;;;18.20;95.90;;;;;;4914279;29;20023;-65
2022/08/25 05:30:14;;;;;;;11.45;6.57;;;18.20;95.80;;;;;;4914009;29;20020;-64
2022/08/25 05:32:40;;;;;;;8.10;6.00;;;18.20;95.80;;;;;;4916475;29;20115;-62
2022/08/25 05:35:06;;;;;;;10.23;6.00;;;18.30;95.80;;;;;;4917977;29;20476;-62
2022/08/25 05:37:32;;;;;;;8.95;6.40;;;18.30;95.80;;;;;;4915263;29;20035;-62
2022/08/25 05:39:59;;;;;;;8.07;6.57;;;18.30;95.70;;;;;;4918025;29;20450;-60
2022/08/25 05:42:27;;;;;;;9.52;6.63;;;18.30;95.70;;;;;;4918042;29;20448;-62
2022/08/25 05:44:53;;;;;;;8.48;6.65;;;18.30;95.70;;;;;;4917534;29;20030;-61
2022/08/25 05:47:18;;;;;;;9.90;6.78;;;18.40;95.60;;;;;;4917363;29;20032;-61
2022/08/25 05:49:44;;;;;;;10.57;7.15;;;18.40;95.60;;;;;;4917790;29;20462;-61
2022/08/25 05:52:09;;;;;;;7.72;5.93;;;18.50;95.40;;;;;;4917230;29;20062;-66
2022/08/25 05:54:35;;;;;;;9.88;6.28;;;18.60;95.20;;;;;;4927594;29;20036;-62
2022/08/25 05:57:01;;;;;;;7.65;5.60;;;18.70;95.00;;;;;;4935959;29;20070;-62
2022/08/25 05:59:26;;;;;;;6.75;5.28;;;18.80;94.80;;;;;;4936702;29;20438;-61
2022/08/25 06:04:36;;;;;;;6.72;5.45;;;19.10;94.20;;;;;;4934197;29;20046;-66
2022/08/25 06:07:02;;;;;;;6.40;4.85;;;19.20;93.90;;;;;;4955084;29;20035;-66
2022/08/25 06:09:27;;;;;;;6.18;4.53;;;19.30;93.70;;;;;;4938408;29;20034;-66
2022/08/25 06:11:53;;;;;;;7.35;5.05;;;19.40;93.60;;;;;;4935921;29;20473;-66
2022/08/25 06:14:19;;;;;;;7.03;4.90;;;19.50;93.40;;;;;;4936732;29;20370;-65
2022/08/25 06:16:47;;;;;;;6.10;4.88;;;19.50;93.00;;;;;;4935769;29;20024;-64
2022/08/25 06:19:13;;;;;;;7.55;4.93;;;19.60;92.80;;;;;;4933589;29;20020;-64
2022/08/25 06:21:39;;;;;;;7.65;4.78;;;19.70;92.70;;;;;;4934898;29;20098;-62
2022/08/25 06:24:06;;;;;;;7.80;5.75;;;19.70;92.20;;;;;;4936174;29;20472;-65
2022/08/25 06:26:33;;;;;;;7.00;5.28;;;19.80;92.00;;;;;;4933635;29;20108;-65
2022/08/25 06:28:58;;;;;;;7.45;5.45;;;19.80;91.70;;;;;;4916900;29;20088;-67
2022/08/25 06:31:24;;;;;;;7.25;4.70;;;19.90;91.40;;;;;;4914592;29;20394;-66
2022/08/25 06:33:51;;;;;;;6.38;4.45;;;19.90;91.20;;;;;;4924438;29;20040;-63
2022/08/25 06:36:18;;;;;;;6.07;4.35;;;20.00;91.00;;;;;;4935394;29;20047;-65
2022/08/25 06:38:44;;;;;;;6.18;4.22;;;20.10;90.80;;;;;;4934694;29;20075;-66
2022/08/25 06:41:11;;;;;;;7.20;4.80;;;20.10;90.70;;;;;;4932948;29;20024;-65
2022/08/25 06:43:39;;;;;;;5.78;4.03;;;20.20;90.40;;;;;;4916198;29;20128;-66
2022/08/25 06:46:13;;;;;;;6.65;4.38;;;20.20;90.30;;;;;;4916286;29;20028;-67
2022/08/25 06:48:40;;;;;;;6.60;4.38;;;20.30;90.10;;;;;;4916224;29;20026;-64
2022/08/25 06:51:09;;;;;;;6.82;4.03;;;20.40;90.00;;;;;;4920078;29;20068;-65
2022/08/25 06:53:35;;;;;;;5.60;4.00;;;20.40;89.80;;;;;;4934852;29;20710;-67
2022/08/25 06:56:00;;;;;;;7.95;3.85;;;20.50;89.50;;;;;;4935584;29;20036;-68
2022/08/25 06:58:27;;;;;;;5.78;3.67;;;20.60;89.20;;;;;;4934678;29;20126;-60
2022/08/25 07:00:53;;;;;;;6.32;3.30;;;20.60;88.80;;;;;;4935171;29;20023;-59
2022/08/25 07:03:19;;;;;;;6.82;3.70;;;20.70;88.40;;;;;;4935450;29;20040;-60
2022/08/25 07:05:55;;;;;;;6.95;3.88;;;20.80;88.10;;;;;;4934315;29;20129;-58
2022/08/25 07:08:22;;;;;;;8.82;4.40;;;20.90;87.30;;;;;;4935515;29;20028;-58
2022/08/25 07:10:48;;;;;;;5.65;3.92;;;20.90;85.90;;;;;;4943527;29;20071;-60
2022/08/25 07:13:14;;;;;;;8.57;3.95;;;21.00;85.70;;;;;;4934679;29;20115;-60
2022/08/25 07:15:41;;;;;;;5.32;3.50;;;21.10;85.20;;;;;;4933902;29;20032;-66
2022/08/25 07:18:07;;;;;;;5.10;3.22;;;21.20;84.70;;;;;;4934138;29;20106;-61
2022/08/25 07:20:34;;;;;;;5.25;3.58;;;21.30;84.40;;;;;;4932826;29;20188;-59
2022/08/25 07:23:00;;;;;;;5.45;3.33;;;21.40;84.00;;;;;;4935059;29;20030;-60
2022/08/25 07:25:26;;;;;;;5.93;3.45;;;21.50;83.70;;;;;;4934394;29;20020;-64
2022/08/25 07:27:52;;;;;;;4.63;2.40;;;21.60;83.40;;;;;;4932997;29;20031;-59
2022/08/25 07:30:18;;;;;;;4.00;2.90;;;21.70;83.30;;;;;;4923267;29;20023;-61
2022/08/25 07:32:44;;;;;;;7.35;3.05;;;21.80;82.90;;;;;;4933771;29;20094;-63
2022/08/25 07:35:16;;;;;;;4.72;2.70;;;21.90;82.30;;;;;;4931107;29;20405;-57
2022/08/25 07:37:44;;;;;;;6.60;3.22;;;22.00;81.90;;;;;;4931562;29;20528;-62
2022/08/25 07:40:17;;;;;;;4.35;3.00;;;22.10;81.40;;;;;;4933868;29;20430;-64
2022/08/25 07:42:43;;;;;;;5.03;3.15;;;22.20;80.80;;;;;;4930327;29;20496;-65
2022/08/25 07:45:10;;;;;;;5.28;2.97;;;22.40;80.50;;;;;;4933585;29;20038;-62
2022/08/25 07:47:37;;;;;;;4.80;3.00;;;22.50;80.10;;;;;;4932033;29;20027;-67
2022/08/25 07:50:05;;;;;;;5.07;2.80;;;22.60;79.40;;;;;;4932692;29;20028;-68
2022/08/25 07:52:31;;;;;;;5.00;3.17;;;22.70;79.10;;;;;;4933095;29;20442;-58
2022/08/25 07:54:57;;;;;;;5.65;3.05;;;22.90;77.80;;;;;;4927371;29;20066;-68
2022/08/25 07:57:25;;;;;;;4.80;3.38;;;23.00;77.40;;;;;;4930221;29;20032;-68
2022/08/25 07:59:50;;;;;;;6.03;3.65;;;23.10;77.00;;;;;;4933361;29;20052;-61
2022/08/25 08:02:17;;;;;;;4.05;2.95;;;23.30;75.90;;;;;;4933793;29;20031;-68
2022/08/25 08:04:45;;;;;;;4.00;3.08;;;23.40;75.90;;;;;;4933919;29;20032;-64
2022/08/25 08:07:11;;;;;;;4.50;2.88;;;23.50;75.30;;;;;;4934453;29;20024;-68
2022/08/25 08:09:36;;;;;;;6.07;3.38;;;23.60;74.60;;;;;;4933405;29;20031;-67
2022/08/25 08:12:04;;;;;;;7.75;4.22;;;23.80;73.60;;;;;;4933617;29;20056;-65
2022/08/25 08:14:30;;;;;;;7.63;3.22;;;23.90;73.20;;;;;;4918874;29;20036;-64
2022/08/25 08:16:56;;;;;;;6.43;3.78;;;24.00;73.20;;;;;;4933201;29;20050;-68
2022/08/25 08:19:22;;;;;;;5.93;2.90;;;24.10;72.20;;;;;;4934513;29;20086;-65
2022/08/25 08:21:49;;;;;;;5.20;3.00;;;24.20;71.90;;;;;;4934000;29;20078;-63
2022/08/25 08:24:15;;;;;;;5.75;2.83;;;24.30;71.70;;;;;;4934198;29;20074;-66
2022/08/25 08:26:40;;;;;;;7.05;3.17;;;24.50;71.50;;;;;;4934500;29;20076;-68
2022/08/25 08:29:06;;;;;;;5.32;3.00;;;24.50;71.10;;;;;;4934959;29;20359;-67
2022/08/25 08:31:31;;;;;;;7.60;3.20;;;24.60;70.50;;;;;;4915778;29;20059;-69
2022/08/25 08:33:57;;;;;;;4.60;2.85;;;24.80;69.60;;;;;;4918255;29;20055;-66
2022/08/25 08:36:24;;;;;;;4.60;2.97;;;24.80;69.30;;;;;;4933977;29;20039;-68
2022/08/25 08:38:50;;;;;;;4.85;3.33;;;24.90;69.40;;;;;;4934134;29;20028;-67
2022/08/25 08:44:41;;;;;;;3.80;2.67;;;25.20;67.70;;;;;;4934464;29;20042;-70
2022/08/25 08:47:51;;;;;;;3.55;2.70;;;25.30;68.00;;;;;;4934947;29;20031;-69
2022/08/25 08:50:39;;;;;;;5.03;2.70;;;25.40;67.40;;;;;;4912122;29;20044;-70
2022/08/25 08:53:21;;;;;;;4.35;2.65;;;25.40;67.10;;;;;;4934050;29;20366;-68
2022/08/25 08:56:04;;;;;;;3.72;2.72;;;25.60;67.00;;;;;;4932973;29;20508;-70
2022/08/25 08:58:47;;;;;;;4.43;2.75;;;25.70;66.20;;;;;;4933962;29;20114;-70
2022/08/25 09:01:25;;;;;;;4.75;3.00;;;25.80;66.20;;;;;;4934373;29;20469;-69
2022/08/25 09:04:19;;;;;;;5.03;2.72;;;25.90;65.90;;;;;;4934222;29;20066;-70
2022/08/25 09:06:47;;;;;;;4.80;3.03;;;26.00;65.80;;;;;;4935956;29;20499;-70
2022/08/25 09:09:19;;;;;;;5.18;2.80;;;26.00;65.00;;;;;;4938640;29;20102;-67
2022/08/25 09:11:56;;;;;;;4.78;2.92;;;26.10;64.90;;;;;;4938071;29;20028;-68
2022/08/25 09:14:34;;;;;;;4.95;2.40;;;26.20;64.60;;;;;;4937473;29;20385;-64
2022/08/25 09:17:16;;;;;;;6.43;2.95;;;26.20;64.50;;;;;;4952828;29;20385;-67
2022/08/25 09:19:47;;;;;;;5.88;3.08;;;26.30;63.50;;;;;;4937156;29;20135;-64
2022/08/25 09:22:25;;;;;;;4.68;2.88;;;26.30;64.10;;;;;;4937863;29;20031;-64
2022/08/25 09:25:04;;;;;;;5.30;3.03;;;26.40;63.00;;;;;;4937681;29;20059;-66
2022/08/25 09:28:07;;;;;;;7.00;2.70;;;26.50;61.40;;;;;;4937041;29;20070;-63
2022/08/25 09:30:44;;;;;;;5.05;2.60;;;26.60;62.40;;;;;;4878669;29;20036;-68
2022/08/25 09:33:14;;;;;;;7.05;3.13;;;26.70;62.70;;;;;;4930584;29;20040;-68
2022/08/25 09:35:40;;;;;;;6.15;2.88;;;26.70;62.10;;;;;;4937442;29;20103;-65
2022/08/25 09:38:10;;;;;;;4.20;2.65;;;26.80;62.10;;;;;;4937983;29;20020;-68
2022/08/25 09:40:40;;;;;;;5.03;2.83;;;26.90;61.90;;;;;;4937001;29;20060;-69
2022/08/25 09:43:19;;;;;;;6.70;2.67;;;27.00;61.70;;;;;;4937572;29;20068;-69
2022/08/25 09:45:50;;;;;;;3.92;2.72;;;27.00;61.00;;;;;;4937538;29;20031;-69
2022/08/25 09:48:29;;;;;;;4.45;2.38;;;27.10;60.90;;;;;;4937214;29;20058;-66
2022/08/25 09:51:17;;;;;;;6.38;2.85;;;27.10;61.00;;;;;;4937425;29;20178;-65
2022/08/25 09:54:04;;;;;;;5.22;2.90;;;27.30;59.80;;;;;;4937059;29;20028;-70
2022/08/25 09:56:33;;;;;;;5.03;2.50;;;27.30;59.50;;;;;;4936488;29;20059;-66
2022/08/25 09:59:19;;;;;;;3.80;2.70;;;27.40;59.60;;;;;;4937532;29;20046;-66
2022/08/25 10:01:57;;;;;;;5.38;2.85;;;27.50;58.80;;;;;;4936354;29;20357;-67
2022/08/25 10:04:30;;;;;;;4.50;2.55;;;27.50;58.80;;;;;;4937333;29;20075;-67
2022/08/25 10:06:56;;;;;;;7.45;2.78;;;27.60;58.50;;;;;;4937308;29;20024;-65
2022/08/25 10:09:36;;;;;;;3.97;2.88;;;27.60;57.30;;;;;;4936414;29;20400;-67
2022/08/25 10:12:16;;;;;;;4.93;2.70;;;27.60;56.00;;;;;;4937163;29;20131;-67
2022/08/25 10:14:42;;;;;;;4.05;2.58;;;27.70;57.00;;;;;;4936744;29;20047;-69
2022/08/25 10:17:13;;;;;;;5.07;2.45;;;27.80;57.00;;;;;;4934445;29;20481;-67
2022/08/25 10:19:39;;;;;;;5.07;2.53;;;27.80;55.60;;;;;;4936906;29;20027;-63
2022/08/25 10:22:31;;;;;;;3.83;2.47;;;27.90;55.30;;;;;;4936893;29;20031;-69
2022/08/25 10:24:58;;;;;;;3.92;2.03;;;27.90;55.60;;;;;;4936944;29;20028;-66
2022/08/25 10:27:48;;;;;;;4.65;2.40;;;27.90;55.80;;;;;;4936829;29;20028;-67
2022/08/25 10:30:26;;;;;;;3.28;2.10;;;28.00;55.70;;;;;;4936164;29;20046;-67
2022/08/25 10:33:36;;;;;;;3.47;2.15;;;28.00;54.90;;;;;;4936671;29;20032;-67
2022/08/25 10:36:13;;;;;;;8.02;2.38;;;28.10;53.30;;;;;;4921980;29;20397;-64
2022/08/25 10:38:42;;;;;;;2.58;1.83;;;28.20;53.70;;;;;;4935975;29;20016;-64
2022/08/25 10:41:26;;;;;;;5.25;2.08;;;28.20;54.20;;;;;;4936474;29;20024;-66
2022/08/25 10:45:41;;;;;;;3.78;2.25;;;28.20;54.30;;;;;;4936119;29;20066;-69
2022/08/25 10:47:28;;;;;;;4.47;2.38;;;28.20;52.80;;;;;;4934125;29;20426;-64
2022/08/25 10:50:02;;;;;;;3.75;2.03;;;28.20;52.60;;;;;;4936603;29;20027;-69
2022/08/25 10:53:18;;;;;;;4.53;2.42;;;28.30;52.70;;;;;;4935572;29;20047;-66
2022/08/25 10:56:03;;;;;;;3.35;2.10;;;28.40;50.20;;;;;;4903854;29;20471;-70
2022/08/25 10:58:53;;;;;;;3.33;1.58;;;28.50;49.90;;;;;;4935221;29;20031;-70
2022/08/25 11:01:37;;;;;;;2.72;1.88;;;28.50;49.90;;;;;;4950797;28;20031;-71
2022/08/25 11:04:15;;;;;;;2.20;1.33;;;28.50;50.00;;;;;;4936139;29;20032;-70
2022/08/25 11:06:48;;;;;;;3.13;2.10;;;28.50;50.40;;;;;;4935303;29;20103;-70
2022/08/25 11:09:21;;;;;;;4.00;2.38;;;28.50;50.60;;;;;;4936136;29;20036;-70
2022/08/25 11:11:58;;;;;;;3.40;2.30;;;28.60;50.40;;;;;;4935046;29;20488;-69
2022/08/25 11:14:35;;;;;;;3.67;2.05;;;28.70;50.00;;;;;;4936174;29;20429;-71
2022/08/25 11:17:12;;;;;;;4.35;2.28;;;28.80;49.60;;;;;;4935046;29;20020;-65
2022/08/25 11:19:44;;;;;;;2.40;2.10;;;29.00;47.70;;;;;;4934746;29;20027;-67
2022/08/25 11:22:20;;;;;;;3.72;2.40;;;29.10;48.50;;;;;;4936108;29;20028;-64
2022/08/25 11:25:08;;;;;;;2.55;1.80;;;29.00;48.70;;;;;;4935344;29;20023;-62
2022/08/25 11:27:54;;;;;;;4.70;1.92;;;29.10;48.80;;;;;;4934955;29;20106;-64
2022/08/25 11:30:20;;;;;;;3.72;2.13;;;29.10;48.60;;;;;;4935800;29;20027;-66
2022/08/25 11:32:51;;;;;;;2.40;1.70;;;29.10;48.40;;;;;;4934418;29;20496;-64
2022/08/25 11:35:32;;;;;;;3.50;2.00;;;29.10;48.10;;;;;;4935458;29;20075;-64
2022/08/25 11:38:19;;;;;;;3.80;1.90;;;29.10;46.90;;;;;;4933815;29;20036;-63
2022/08/25 11:40:59;;;;;;;3.60;1.88;;;29.30;45.70;;;;;;4934681;29;20386;-68
2022/08/25 11:43:36;;;;;;;;;;;29.30;45.60;;;;;;4935809;29;20059;-67
2022/08/25 11:46:35;;;;;;;2.95;2.10;;;29.40;45.20;;;;;;4935287;29;19922;-63
2022/08/25 11:49:31;;;;;;;3.35;1.90;;;29.40;45.20;;;;;;4934773;29;20024;-64
2022/08/25 11:51:57;;;;;;;5.10;1.90;;;29.30;46.50;;;;;;4935329;29;20114;-65
2022/08/25 11:54:28;;;;;;;4.55;2.45;;;29.40;45.80;;;;;;4934593;29;20036;-66
2022/08/25 11:57:05;;;;;;;3.53;1.63;;;29.40;46.70;;;;;;4935405;29;20027;-69
2022/08/25 11:59:49;;;;;;;4.65;2.20;;;29.40;46.00;;;;;;4933701;29;20122;-62
2022/08/25 12:02:35;;;;;;;3.13;1.98;;;29.50;46.40;;;;;;4934735;29;20027;-64
2022/08/25 12:05:04;;;;;;;2.70;1.67;;;29.50;44.80;;;;;;4935066;29;20024;-68
2022/08/25 12:08:37;;;;;;;3.15;1.70;;;29.50;45.70;;;;;;4949462;29;20401;-69
2022/08/25 12:10:57;;;;;;;2.78;1.70;;;29.50;44.80;;;;;;4934517;29;20024;-68
2022/08/25 12:13:42;;;;;;;3.17;1.70;;;29.50;45.10;;;;;;4935064;29;20409;-63
2022/08/25 12:16:34;;;;;;;3.28;1.75;;;29.50;45.40;;;;;;4934273;29;20020;-69
2022/08/25 12:19:21;;;;;;;2.28;1.48;;;29.50;45.00;;;;;;4906882;29;20039;-67
2022/08/25 12:21:47;;;;;;;3.10;1.55;;;29.50;43.20;;;;;;4934345;29;20051;-63
2022/08/25 12:24:15;;;;;;;2.22;1.38;;;29.50;43.90;;;;;;4934432;29;20031;-69
2022/08/25 12:26:43;;;;;;;1.58;1.23;;;29.50;43.90;;;;;;4934953;29;20048;-67
2022/08/25 12:29:36;;;;;;;2.88;1.58;;;29.60;44.20;;;;;;4933996;29;20074;-67
2022/08/25 12:32:41;;;;;;;2.55;1.73;;;29.60;44.00;;;;;;4934852;29;20095;-69
2022/08/25 12:35:24;;;;;;;2.40;1.30;;;29.60;44.50;;;;;;4904829;29;20122;-64
2022/08/25 12:37:58;;;;;;;2.17;1.42;;;29.60;44.80;;;;;;4933811;29;20563;-68
2022/08/25 12:40:37;;;;;;;4.78;1.90;;;29.70;45.30;;;;;;4934364;29;20038;-66
2022/08/25 12:43:08;;;;;;;2.42;1.85;;;29.70;45.00;;;;;;4934161;29;20055;-66
2022/08/25 12:45:38;;;;;;;;;;;29.70;45.10;;;;;;4935212;29;20106;-66
2022/08/25 12:48:30;;;;;;;3.17;1.70;;;29.70;45.00;;;;;;4949153;29;19918;-64
2022/08/25 12:51:06;;;;;;;3.58;1.73;;;29.80;44.30;;;;;;4933840;29;20028;-67
2022/08/25 12:53:38;;;;;;;2.85;1.63;;;29.80;43.00;;;;;;4934156;29;20035;-66
2022/08/25 12:56:17;;;;;;;2.63;1.55;;;29.90;43.10;;;;;;4934530;29;20103;-69
2022/08/25 12:59:13;;;;;;;2.30;1.77;;;30.00;43.20;;;;;;4933559;29;20496;-66
2022/08/25 13:01:58;;;;;;;2.53;1.67;;;30.00;42.80;;;;;;4934156;29;20032;-68
2022/08/25 13:05:05;;;;;;;2.50;1.73;;;30.00;43.40;;;;;;4933709;29;20059;-70
2022/08/25 13:07:53;;;;;;;2.53;1.85;;;30.10;43.50;;;;;;4934255;29;20027;-70
2022/08/25 13:10:51;;;;;;;3.58;1.60;;;30.10;42.60;;;;;;4934312;29;20020;-71
2022/08/25 13:13:56;;;;;;;2.45;1.80;;;30.10;43.40;;;;;;4933873;29;20126;-69
2022/08/25 13:16:27;;;;;;;2.10;1.50;;;30.20;42.60;;;;;;4948816;29;20527;-67
2022/08/25 13:18:57;;;;;;;2.83;1.60;;;30.20;43.00;;;;;;4933737;29;20031;-70
2022/08/25 13:21:23;;;;;;;;;;;30.20;42.10;;;;;;4934589;29;20457;-69